SK1904 / ES-ATE 7700 Squawk Report (18th of September, 2019)

Aircraft AT76 Reg No. ES-ATE Age N/A
Model ATR 72 Turboprop engines 2 First flight N/A
Registered 20-10-17 Rollout 10-13 Delivered 14-03-14
Construction No. 1120 Line No. N/A Series 600
ADSHEX 5110E9 Airline name SAS Scandinavian Airlines Owner Regional Jet OU
Airfield based Copenhagen-Kastrup~Copenhagen~OY First tracked 2017-11-01 09:44:00
Time Lat Lon Altitude Heading Speed Vertical Rate
2019-09-18 12:40:15 GMT 57.086906 9.868534 0 129 12 0
2019-09-18 12:40:05 GMT 57.087231 9.867827 0 126 11 0
2019-09-18 12:39:47 GMT 57.088032 9.866498 0 143 17 0
2019-09-18 12:39:40 GMT 57.088497 9.865811 0 140 21 0
2019-09-18 12:39:35 GMT 57.088894 9.865235 0 140 24 0
2019-09-18 12:39:23 GMT 57.089848 9.863856 0 143 23 0
2019-09-18 12:39:00 GMT 57.091782 9.861131 0 143 21 0
2019-09-18 12:38:54 GMT 57.092159 9.860594 0 143 21 0
2019-09-18 12:38:43 GMT 57.092945 9.859521 0 143 19 0
2019-09-18 12:38:33 GMT 57.093559 9.858635 0 143 17 0
2019-09-18 12:38:23 GMT 57.094143 9.857815 0 143 14 0
2019-09-18 12:38:11 GMT 57.094666 9.857097 0 137 12 0
2019-09-18 12:38:02 GMT 57.095051 9.856841 0 194 9 0
2019-09-18 12:37:52 GMT 57.095261 9.857394 0 261 18 0
2019-09-18 12:37:41 GMT 57.095512 9.861302 0 264 66 0
2019-09-18 12:37:29 GMT 57.096039 9.869928 -175 264 101 -512
2019-09-18 12:37:21 GMT 57.096497 9.877310 -100 265 109 -640
2019-09-18 12:37:11 GMT 57.097092 9.886665 0 264 110 -448
2019-09-18 12:37:01 GMT 57.097717 9.896201 100 264 107 -576
2019-09-18 12:36:50 GMT 57.098328 9.905462 200 264 107 -704
2019-09-18 12:36:41 GMT 57.098923 9.914474 275 264 105 -576
2019-09-18 12:36:30 GMT 57.099579 9.924021 400 263 109 -640
2019-09-18 12:36:20 GMT 57.100113 9.933100 500 265 107 -512
2019-09-18 12:36:10 GMT 57.100708 9.942541 575 263 104 -448
2019-09-18 12:35:59 GMT 57.101208 9.951575 675 267 106 -576
2019-09-18 12:35:35 GMT 57.101532 9.973698 1,075 295 109 -1216
2019-09-18 12:35:28 GMT 57.099518 9.979362 1,250 310 110 -1856
2019-09-18 12:35:08 GMT 57.091526 9.989939 1,775 353 115 -768
2019-09-18 12:35:03 GMT 57.088074 9.990091 1,850 25 141 -576
2019-09-18 12:34:58 GMT 57.085190 9.988632 1,900 20 137 -640
2019-09-18 12:34:53 GMT 57.082855 9.986401 1,925 32 147 -448
2019-09-18 12:34:47 GMT 57.079468 9.981611 1,975 43 155 -64
2019-09-18 12:34:44 GMT 57.077652 9.977978 1,975 50 157 -512
2019-09-18 12:34:34 GMT 57.073059 9.966660 2,025 47 159 -448
2019-09-18 12:34:23 GMT 57.067795 9.955931 2,075 50 161 -320
2019-09-18 12:34:13 GMT 57.063313 9.945285 2,125 53 162 -448
2019-09-18 12:34:03 GMT 57.058987 9.933767 2,200 58 167 -1088
2019-09-18 12:31:51 GMT 57.017136 9.746911 4,825 70 198 -896
2019-09-18 12:31:50 GMT 57.017136 9.746911 4,825 70 198 -1216
2019-09-18 12:31:41 GMT 57.014557 9.733801 5,000 70 201 -1344
2019-09-18 12:31:32 GMT 57.011269 9.716433 5,225 70 205 -1152
2019-09-18 12:31:20 GMT 57.007965 9.698181 5,475 72 208 -1792
2019-09-18 12:31:15 GMT 57.006134 9.688139 5,675 71 208 -1792
2019-09-18 12:31:10 GMT 57.004486 9.679384 5,825 70 207 -1600
2019-09-18 12:30:30 GMT 56.990181 9.614809 6,750 67 219 -1536
2019-09-18 12:30:25 GMT 56.988373 9.606943 6,850 70 220 -1280
2019-09-18 12:29:56 GMT 56.977386 9.555445 7,500 70 220 -1088
2019-09-18 12:29:53 GMT 56.976700 9.551754 7,550 70 221 -1088
2019-09-18 12:29:50 GMT 56.975281 9.544373 7,625 70 221 -1152
2019-09-18 12:29:30 GMT 56.968117 9.507072 8,125 70 217 -1600
2019-09-18 12:29:27 GMT 56.967419 9.503528 8,125 70 217 -1536
2019-09-18 12:29:22 GMT 56.966206 9.497592 8,275 69 216 -1408
2019-09-18 12:29:18 GMT 56.963608 9.485149 9,900 63 207 -1344
2019-09-18 12:28:54 GMT 56.955231 9.449615 9,075 65 207 -1664
2019-09-18 12:28:36 GMT 56.947723 9.422665 9,475 60 210 -1536
2019-09-18 12:28:30 GMT 56.944656 9.412622 9,650 62 212 -1344
2019-09-18 12:28:27 GMT 56.943375 9.408073 9,725 63 215 -1344
2019-09-18 12:28:19 GMT 56.939716 9.394817 9,900 63 216 -1344
2019-09-18 12:28:16 GMT 56.938477 9.390392 9,975 62 220 -1408
2019-09-18 12:28:09 GMT 56.934597 9.376654 10,150 62 221 -1728
2019-09-18 12:28:06 GMT 56.933395 9.372368 10,225 62 221 -1792
2019-09-18 12:28:02 GMT 56.931519 9.365673 10,350 62 216 -1472
2019-09-18 12:27:55 GMT 56.928543 9.355373 12,150 62 236 -1600
2019-09-18 12:26:49 GMT 56.897263 9.241451 12,175 62 236 -1984
2019-09-18 12:26:43 GMT 56.894375 9.231351 12,350 62 235 -1600
2019-09-18 12:26:33 GMT 56.888992 9.212551 12,600 61 237 -1152
2019-09-18 12:26:28 GMT 56.886703 9.204826 12,675 59 238 -1216
2019-09-18 12:26:23 GMT 56.884415 9.197329 12,750 59 238 -1280
2019-09-18 12:26:17 GMT 56.880707 9.186287 12,900 58 239 -1472
2019-09-18 12:26:13 GMT 56.878361 9.179432 12,975 57 239 -1088
2019-09-18 12:26:07 GMT 56.874451 9.168888 13,100 54 238 -1408
2019-09-18 12:26:03 GMT 56.871735 9.161911 13,375 54 238 -1280
2019-09-18 12:23:53 GMT 56.946945 8.980551 14,025 164 294 -384
2019-09-18 12:23:50 GMT 56.949448 8.979285 14,025 164 294 -384
2019-09-18 12:23:46 GMT 56.963226 8.974767 14,075 195 285 -128
2019-09-18 12:23:40 GMT 56.963226 8.974767 14,075 174 291 -128
2019-09-18 12:23:37 GMT 56.968323 8.974028 14,075 178 290 128
2019-09-18 12:23:30 GMT 56.976635 8.974501 14,050 188 287 -320
2019-09-18 12:23:24 GMT 56.984070 8.976946 14,100 195 285 -128
2019-09-18 12:23:20 GMT 56.990204 8.980637 14,100 207 279 128
2019-09-18 12:23:14 GMT 56.996201 8.985872 14,100 208 280 128
2019-09-18 12:23:09 GMT 57.001678 8.992132 14,075 216 279 256
2019-09-18 12:23:05 GMT 57.006008 8.998157 14,050 220 280 256
2019-09-18 12:22:48 GMT 57.019787 9.027306 13,975 242 278 -64
2019-09-18 12:22:43 GMT 57.022476 9.038744 14,000 262 269 192
2019-09-18 12:22:38 GMT 57.023895 9.050417 14,000 263 268 192
2019-09-18 12:22:34 GMT 57.024395 9.061860 14,000 284 260 -128
2019-09-18 12:22:27 GMT 57.023941 9.073935 14,000 280 261 -128
2019-09-18 12:22:23 GMT 57.022568 9.083290 14,000 292 257 -64
2019-09-18 12:22:18 GMT 57.019833 9.093933 14,000 304 254 0
2019-09-18 12:22:10 GMT 57.014526 9.105983 14,000 316 253 128
2019-09-18 12:22:07 GMT 57.011169 9.110928 13,975 340 253 -64
2019-09-18 12:22:00 GMT 57.004028 9.117880 13,975 340 253 -64
2019-09-18 12:21:57 GMT 57.001076 9.119450 14,000 359 256 64
2019-09-18 12:21:52 GMT 56.994781 9.121056 14,000 357 255 64
2019-09-18 12:21:47 GMT 56.989197 9.121399 13,975 0 256 128
2019-09-18 12:21:42 GMT 56.982311 9.121576 14,000 0 256 128
2019-09-18 12:21:35 GMT 56.975098 9.121753 13,975 0 258 64
2019-09-18 12:21:30 GMT 56.969742 9.121828 13,950 0 257 128
2019-09-18 12:21:26 GMT 56.964764 9.122019 13,950 0 258 0
2019-09-18 12:21:04 GMT 56.938133 9.122817 14,025 359 254 0
2019-09-18 12:21:01 GMT 56.933990 9.122994 14,025 359 254 128
2019-09-18 12:20:56 GMT 56.928638 9.123171 14,000 359 254 64
2019-09-18 12:20:30 GMT 56.897415 9.124660 14,000 359 255 64
2019-09-18 12:20:26 GMT 56.892979 9.124854 14,000 359 255 64
2019-09-18 12:20:15 GMT 56.880615 9.125347 14,000 359 255 0
2019-09-18 12:20:12 GMT 56.876038 9.125519 14,000 359 255 0
2019-09-18 12:20:05 GMT 56.868759 9.125776 14,000 359 255 -64
2019-09-18 12:20:02 GMT 56.863953 9.125948 14,000 359 255 0
2019-09-18 12:19:59 GMT 56.860950 9.126095 14,000 359 255 0
2019-09-18 12:19:55 GMT 56.856716 9.126272 14,000 359 255 0
2019-09-18 12:19:52 GMT 56.852554 9.126463 14,000 359 255 0
2019-09-18 12:19:48 GMT 56.848434 9.126635 14,000 359 255 0
2019-09-18 12:19:44 GMT 56.843449 9.126803 14,000 359 255 0
2019-09-18 12:19:41 GMT 56.840332 9.126978 14,000 359 255 0
2019-09-18 12:19:38 GMT 56.836624 9.127064 14,000 359 256 0
2019-09-18 12:19:34 GMT 56.832462 9.127246 14,000 359 256 0
2019-09-18 12:19:29 GMT 56.825245 9.127512 14,000 359 256 0
2019-09-18 12:19:24 GMT 56.820217 9.127778 14,000 359 256 64
2019-09-18 12:19:21 GMT 56.815609 9.127955 14,000 359 256 64
2019-09-18 12:19:14 GMT 56.808441 9.128221 13,975 359 257 -64
2019-09-18 12:19:08 GMT 56.801785 9.128487 13,975 359 257 0
2019-09-18 12:19:04 GMT 56.796570 9.128664 13,975 359 257 0
2019-09-18 12:18:56 GMT 56.785995 9.129124 14,000 359 257 0
2019-09-18 12:18:53 GMT 56.784027 9.129210 14,000 359 257 -64
2019-09-18 12:18:49 GMT 56.778553 9.129373 14,000 359 257 -64
2019-09-18 12:18:43 GMT 56.772217 9.129639 14,000 359 257 -64
2019-09-18 12:18:36 GMT 56.763611 9.129993 14,000 359 257 -64
2019-09-18 12:18:33 GMT 56.759605 9.130170 14,000 359 257 0
2019-09-18 12:18:28 GMT 56.754208 9.130436 14,000 359 256 64
2019-09-18 12:18:23 GMT 56.747955 9.130669 14,000 359 256 64
2019-09-18 12:18:17 GMT 56.740814 9.130926 14,000 359 257 0
2019-09-18 12:18:13 GMT 56.735401 9.131145 14,000 359 257 -64
2019-09-18 12:18:07 GMT 56.729416 9.131355 14,000 359 256 0
2019-09-18 12:18:03 GMT 56.723694 9.131613 14,000 359 256 64
2019-09-18 12:17:57 GMT 56.716312 9.131942 14,000 359 257 0
2019-09-18 12:17:52 GMT 56.711613 9.132119 14,000 359 257 0
2019-09-18 12:17:48 GMT 56.704697 9.132385 14,000 359 257 0
2019-09-18 12:17:44 GMT 56.698059 9.132557 14,000 359 257 0
2019-09-18 12:17:41 GMT 56.698059 9.132557 14,000 359 257 -64
2019-09-18 12:17:35 GMT 56.686340 9.133072 14,000 359 256 -128
2019-09-18 12:17:31 GMT 56.686340 9.133072 14,000 359 256 -64
2019-09-18 12:17:25 GMT 56.673485 9.133537 14,000 359 255 0
2019-09-18 12:17:20 GMT 56.673485 9.133537 14,000 359 255 -64
2019-09-18 12:17:14 GMT 56.666130 9.133891 14,000 359 255 64
2019-09-18 12:17:11 GMT 56.661430 9.134069 14,000 359 256 64
2019-09-18 12:17:03 GMT 56.652817 9.134334 14,000 359 256 0
2019-09-18 12:17:00 GMT 56.649399 9.134531 14,000 359 256 0
2019-09-18 12:16:54 GMT 56.642529 9.134777 14,000 359 256 0
2019-09-18 12:16:51 GMT 56.639374 9.134874 14,000 359 256 64
2019-09-18 12:16:44 GMT 56.630703 9.135220 14,000 359 256 0
2019-09-18 12:16:39 GMT 56.624405 9.135475 14,000 359 256 0
2019-09-18 12:16:31 GMT 56.614746 9.135818 14,000 359 256 0
2019-09-18 12:16:21 GMT 56.603191 9.136284 14,000 359 256 0
2019-09-18 12:16:18 GMT 56.598175 9.136505 14,000 359 256 -64
2019-09-18 12:16:14 GMT 56.591320 9.136763 14,000 359 256 0
2019-09-18 12:16:08 GMT 56.588249 9.136934 14,000 359 256 0
2019-09-18 12:16:04 GMT 56.582520 9.137129 14,000 359 256 -64
2019-09-18 12:16:01 GMT 56.579403 9.137278 14,000 359 256 0
2019-09-18 12:15:58 GMT 56.575424 9.137379 14,000 359 257 0
2019-09-18 12:15:51 GMT 56.566696 9.137707 14,000 359 257 0
2019-09-18 12:15:47 GMT 56.562607 9.137878 14,000 359 257 0
2019-09-18 12:15:40 GMT 56.554264 9.138222 14,000 359 257 0
2019-09-18 12:15:35 GMT 56.549610 9.138393 14,000 359 257 0
2019-09-18 12:15:32 GMT 56.544662 9.138627 14,000 359 257 0
2019-09-18 12:15:29 GMT 56.542347 9.138737 14,000 359 257 0
2019-09-18 12:15:25 GMT 56.536880 9.138960 14,000 359 257 -64
2019-09-18 12:15:19 GMT 56.530289 9.139210 14,000 359 257 128
2019-09-18 12:15:10 GMT 56.519165 9.139595 13,975 359 259 64
2019-09-18 12:14:58 GMT 56.500404 9.140368 13,975 359 259 -192
2019-09-18 12:14:48 GMT 56.483738 9.140968 14,000 359 258 64
2019-09-18 12:14:44 GMT 56.483738 9.140968 14,000 359 258 0
2019-09-18 12:14:38 GMT 56.480072 9.141124 14,000 359 257 -64
2019-09-18 12:14:29 GMT 56.470276 9.141541 14,000 359 257 0
2019-09-18 12:14:20 GMT 56.459152 9.141957 14,000 359 257 0
2019-09-18 12:14:17 GMT 56.455078 9.142123 14,000 359 257 0
2019-09-18 12:14:08 GMT 56.445099 9.142513 14,000 359 257 0
2019-09-18 12:14:04 GMT 56.435837 9.142857 14,000 359 256 -64
2019-09-18 12:13:59 GMT 56.434433 9.142955 14,000 359 256 -64
2019-09-18 12:13:55 GMT 56.429993 9.143122 14,000 359 256 -64
2019-09-18 12:13:48 GMT 56.421917 9.143372 14,000 359 256 0
2019-09-18 12:13:45 GMT 56.416397 9.143621 14,000 359 256 0
2019-09-18 12:13:37 GMT 56.408661 9.143871 14,000 359 256 64
2019-09-18 12:13:34 GMT 56.404835 9.144058 14,000 359 256 64
2019-09-18 12:13:29 GMT 56.399048 9.144287 14,000 359 256 -64
2019-09-18 12:13:26 GMT 56.395428 9.144402 14,000 359 256 0
2019-09-18 12:13:19 GMT 56.387741 9.144703 14,000 359 256 -64
2019-09-18 12:13:16 GMT 56.382935 9.144953 14,000 359 255 -64
2019-09-18 12:13:11 GMT 56.378174 9.145119 14,000 359 255 -64
2019-09-18 12:13:08 GMT 56.373688 9.145260 14,000 359 255 -64
2019-09-18 12:12:59 GMT 56.363663 9.145702 14,000 359 255 128
2019-09-18 12:12:55 GMT 56.351017 9.146204 13,975 359 255 0
2019-09-18 12:12:49 GMT 56.351017 9.146204 13,975 359 255 64
2019-09-18 12:12:46 GMT 56.338310 9.146633 13,975 359 255 0
2019-09-18 12:12:38 GMT 56.338310 9.146633 13,975 359 255 -128
2019-09-18 12:12:32 GMT 56.332123 9.146950 14,000 359 255 -64
2019-09-18 12:12:28 GMT 56.326218 9.147117 14,000 359 254 64
2019-09-18 12:12:25 GMT 56.323318 9.147234 14,000 359 254 64
2019-09-18 12:12:14 GMT 56.311295 9.147700 13,975 359 254 -64
2019-09-18 12:12:05 GMT 56.299065 9.148178 13,975 359 253 64
2019-09-18 12:11:54 GMT 56.287102 9.148693 14,000 359 252 -64
2019-09-18 12:11:43 GMT 56.274673 9.149198 14,000 359 250 0
2019-09-18 12:11:36 GMT 56.266068 9.149447 14,000 359 248 -64
2019-09-18 12:11:33 GMT 56.262405 9.149614 14,000 359 248 0
2019-09-18 12:11:25 GMT 56.254375 9.149981 14,000 359 247 64
2019-09-18 12:11:22 GMT 56.250870 9.150113 14,000 359 246 128
2019-09-18 12:11:15 GMT 56.242813 9.150363 13,975 359 245 64
2019-09-18 12:11:12 GMT 56.238052 9.150529 13,975 359 209 0
2019-09-18 12:11:05 GMT 56.231415 9.150779 13,975 0 243 -128
2019-09-18 12:11:02 GMT 56.228073 9.150925 14,000 359 209 0
2019-09-18 12:10:52 GMT 56.216576 9.151354 14,000 0 233 64
2019-09-18 12:10:45 GMT 56.209034 9.151697 14,000 0 235 0
2019-09-18 12:10:41 GMT 56.204727 9.151778 14,000 0 233 64
2019-09-18 12:10:34 GMT 56.197254 9.152126 14,000 359 230 64
2019-09-18 12:10:31 GMT 56.194061 9.152194 13,975 359 195 704
2019-09-18 12:10:24 GMT 56.186874 9.152470 13,975 359 226 0
2019-09-18 12:10:19 GMT 56.181988 9.152727 14,000 359 223 -64
2019-09-18 12:10:14 GMT 56.176495 9.152899 14,000 359 219 0
2019-09-18 12:10:09 GMT 56.169571 9.153109 14,000 359 216 0
2019-09-18 12:10:04 GMT 56.166206 9.153242 14,000 359 208 -64
2019-09-18 12:09:59 GMT 56.160278 9.153526 14,000 359 209 -64
2019-09-18 12:09:54 GMT 56.156662 9.153671 14,000 359 204 128
2019-09-18 12:09:50 GMT 56.153030 9.153843 13,975 359 201 256
2019-09-18 12:09:43 GMT 56.146820 9.154108 13,950 359 196 640
2019-09-18 12:09:39 GMT 56.140045 9.154358 12,900 359 193 1088
2019-09-18 12:09:33 GMT 56.137711 9.154441 13,800 359 193 1152
2019-09-18 12:09:29 GMT 56.134003 9.154608 12,900 359 194 1152
2019-09-18 12:09:24 GMT 56.129242 9.154774 13,625 359 194 1152
2019-09-18 12:09:18 GMT 56.124401 9.154959 13,525 0 194 1152
2019-09-18 12:09:14 GMT 56.119537 9.155107 13,425 359 194 1152
2019-09-18 12:09:08 GMT 56.111462 9.155474 13,250 359 194 1152
2019-09-18 12:09:03 GMT 56.110565 9.155523 13,225 359 194 1152
2019-09-18 12:08:58 GMT 56.106060 9.155645 13,125 359 195 1152
2019-09-18 12:08:53 GMT 56.101639 9.155856 12,975 359 194 1152
2019-09-18 12:08:47 GMT 56.096657 9.156075 12,925 359 194 1152
2019-09-18 12:08:41 GMT 56.090973 9.156272 12,800 359 195 1216
2019-09-18 12:08:36 GMT 56.086853 9.156439 11,975 0 195 1216
2019-09-18 12:08:31 GMT 56.082092 9.156605 12,600 0 195 1216
2019-09-18 12:08:27 GMT 56.078156 9.156688 12,350 359 196 1152
2019-09-18 12:08:22 GMT 56.073940 9.156847 12,175 359 196 1216
2019-09-18 12:08:15 GMT 56.067749 9.157104 12,300 0 196 1152
2019-09-18 12:08:12 GMT 56.064907 9.157190 12,150 0 196 1152
2019-09-18 12:08:06 GMT 56.058975 9.157437 11,975 359 192 1152
2019-09-18 12:08:01 GMT 56.054764 9.157521 12,000 0 196 1152
2019-09-18 12:07:56 GMT 56.049820 9.157770 11,900 359 196 1152
2019-09-18 12:07:52 GMT 56.046249 9.157854 11,825 359 194 1152
2019-09-18 12:07:45 GMT 56.040115 9.158103 11,575 359 194 1152
2019-09-18 12:07:41 GMT 56.036819 9.158186 10,650 359 194 1152
2019-09-18 12:07:35 GMT 56.031281 9.158436 11,425 359 192 1152
2019-09-18 12:07:31 GMT 56.027893 9.158519 11,225 359 191 1152
2019-09-18 12:07:25 GMT 56.022175 9.158735 11,300 359 191 1216
2019-09-18 12:07:21 GMT 56.018543 9.158907 11,225 359 191 1152
2019-09-18 12:07:15 GMT 56.013382 9.159102 11,050 0 189 1216
2019-09-18 12:07:11 GMT 56.009697 9.159250 11,025 359 189 1216
2019-09-18 12:07:05 GMT 56.003906 9.159435 10,900 0 189 1216
2019-09-18 12:07:00 GMT 56.000622 9.159594 10,800 359 188 1216
2019-09-18 12:06:54 GMT 55.995266 9.159851 10,675 359 187 1216
2019-09-18 12:06:48 GMT 55.989540 9.160023 10,550 359 187 1216
2019-09-18 12:06:44 GMT 55.986004 9.160194 10,475 359 186 1152
2019-09-18 12:06:38 GMT 55.980423 9.160434 10,325 359 184 1152
2019-09-18 12:06:33 GMT 55.977436 9.160538 10,275 359 184 1152
2019-09-18 12:06:29 GMT 55.973713 9.160709 10,175 359 182 1216
2019-09-18 12:06:23 GMT 55.968475 9.161016 10,000 359 180 1280
2019-09-18 12:06:19 GMT 55.965611 9.161139 10,000 359 181 1216
2019-09-18 12:06:12 GMT 55.959778 9.161516 9,850 359 178 1216
2019-09-18 12:06:04 GMT 55.953091 9.161997 9,650 359 178 1216
2019-09-18 12:06:01 GMT 55.950439 9.162182 9,650 358 175 1088
2019-09-18 12:05:57 GMT 55.947224 9.162426 9,550 8 164 1536
2019-09-18 12:05:51 GMT 55.942429 9.162681 9,450 0 169 896
2019-09-18 12:05:47 GMT 55.939270 9.162764 9,375 1 166 1024
2019-09-18 12:05:42 GMT 55.935493 9.162598 9,275 2 164 1280
2019-09-18 12:05:39 GMT 55.933090 9.162348 9,225 5 163 1600
2019-09-18 12:05:31 GMT 55.927322 9.160933 9,025 8 163 1792
2019-09-18 12:05:21 GMT 55.913498 9.157021 8,675 9 165 1600
2019-09-18 12:05:13 GMT 55.913498 9.157021 8,500 8 164 1536
2019-09-18 12:05:10 GMT 55.911564 9.156504 8,450 8 163 1600
2019-09-18 12:05:00 GMT 55.896435 9.152813 7,625 8 160 1792
2019-09-18 12:04:50 GMT 55.896435 9.152813 7,900 8 160 1792
2019-09-18 12:04:40 GMT 55.888779 9.150696 7,600 8 160 1792
2019-09-18 12:04:29 GMT 55.873810 9.146950 7,200 9 159 1792
2019-09-18 12:04:19 GMT 55.873810 9.146950 7,000 9 159 1792
2019-09-18 12:04:09 GMT 55.866074 9.143954 6,675 14 159 1984
2019-09-18 12:03:58 GMT 55.859024 9.139959 6,300 20 161 2240
2019-09-18 12:03:49 GMT 55.851933 9.134789 5,950 24 165 1920
2019-09-18 12:03:37 GMT 55.844296 9.128609 5,600 24 166 1792
2019-09-18 12:03:27 GMT 55.837315 9.122686 5,300 25 165 1856
2019-09-18 12:03:17 GMT 55.830276 9.117154 4,950 20 162 1984
2019-09-18 12:03:07 GMT 55.822998 9.114574 4,650 4 158 1664
2019-09-18 12:02:56 GMT 55.815079 9.113409 4,325 4 157 1856
2019-09-18 12:02:46 GMT 55.807892 9.112410 4,025 4 157 2048
2019-09-18 12:02:36 GMT 55.800117 9.111271 3,675 4 157 1792
2019-09-18 12:02:25 GMT 55.792557 9.110246 3,375 4 156 1536
2019-09-18 12:02:15 GMT 55.784851 9.109211 3,075 4 153 1856
2019-09-18 12:02:04 GMT 55.777214 9.108095 2,800 4 152 1664
2019-09-18 12:01:54 GMT 55.770172 9.107749 2,450 354 148 1792
2019-09-18 12:01:44 GMT 55.763168 9.109747 2,125 350 147 1856
2019-09-18 12:01:33 GMT 55.756210 9.112327 1,800 345 145 1856
2019-09-18 12:01:21 GMT 55.748631 9.116592 1,425 340 144 1408
2019-09-18 12:01:11 GMT 55.743027 9.122647 1,250 310 132 896

Making use of Plane Finder data

You are free to use the raw flight data, aircraft information and images provided in this report for your own purposes provided the data is correctly attributed to Plane Finder. We ask that you please credit Plane Finder and link to planefinder.net in close proximity to the content.

Optionally one of the following logos (no smaller then 150x24px) can be used and must link to planefinder.net

Embedding the Plane Finder map

You are welcome to embed the Plane Finder playback map on your website to offer visitors a more interactive experience. We suggest using the following HTML code:

<iframe src="//planefinder.net/data/report/SK1904-ES-ATE-7700-squawk-2019-09-18/map" width="800" height="600" seamless="seamless"></iframe>

Where our data comes from

Plane Finder has a global network of data feeds and antenna radars that receive data broadcast directly from aircraft. The primary technologies used are ADS-B and MLAT. We also show feeds from the FAA and a FLARM glider feed.

Click here to find out more about the Plane Finder network.

How we collect our data